createdAt,value
2022-10-04T07:58:25.371Z,8.97
2022-10-04T07:59:49.497Z,8.90
2022-10-04T08:01:28.471Z,9.15
2022-10-04T08:02:39.938Z,9.28
2022-10-04T08:04:11.515Z,9.44
2022-10-04T08:14:38.022Z,10.98
2022-10-04T08:15:42.283Z,11.02
2022-10-04T08:17:11.824Z,10.97
2022-10-04T08:18:31.255Z,11.20
2022-10-04T08:19:57.975Z,11.01
2022-10-04T08:26:08.635Z,11.96
2022-10-04T08:27:26.464Z,12.52
2022-10-04T08:28:55.870Z,13.14
2022-10-04T08:30:02.430Z,14.57
2022-10-04T08:31:52.558Z,15.25
2022-10-04T08:33:20.672Z,15.85
2022-10-04T08:34:31.881Z,15.71
2022-10-04T08:36:07.722Z,15.01
2022-10-04T08:37:17.848Z,15.53
2022-10-04T08:50:05.320Z,15.07
2022-10-04T08:51:25.539Z,15.57
2022-10-04T08:52:51.909Z,16.34
2022-10-04T08:54:20.805Z,16.43
2022-10-04T08:56:03.782Z,17.38
2022-10-04T08:57:15.677Z,16.15
2022-10-04T08:58:55.234Z,16.38
2022-10-04T09:00:08.797Z,15.91
2022-10-04T09:01:28.595Z,16.52
2022-10-04T09:08:03.581Z,17.19
2022-10-04T09:09:40.609Z,18.29
2022-10-04T09:11:00.441Z,17.88
2022-10-04T09:12:17.036Z,17.52
2022-10-04T09:13:40.593Z,17.72
2022-10-04T09:20:26.280Z,16.71
2022-10-04T09:21:43.672Z,16.40
2022-10-04T09:23:06.281Z,16.16
2022-10-04T09:24:26.761Z,16.41
2022-10-04T09:25:51.462Z,17.31
2022-10-04T09:27:36.811Z,17.38
2022-10-04T09:29:05.473Z,16.55
2022-10-04T09:30:17.705Z,16.31
2022-10-04T09:31:53.265Z,16.91
2022-10-04T09:33:14.613Z,16.73
2022-10-04T09:34:28.001Z,16.88
2022-10-04T09:35:41.636Z,17.30
2022-10-04T09:37:12.928Z,17.00
2022-10-04T09:45:24.849Z,18.01
2022-10-04T09:46:56.679Z,17.78
2022-10-04T09:48:30.016Z,18.32
2022-10-04T09:50:00.633Z,18.49
2022-10-04T09:51:13.902Z,19.48
2022-10-04T09:52:21.403Z,19.54
2022-10-04T09:53:40.250Z,19.88
2022-10-04T09:55:13.245Z,20.46
2022-10-04T09:56:31.517Z,19.08
2022-10-04T09:58:07.811Z,18.47
2022-10-04T09:59:27.778Z,18.83
2022-10-04T10:00:44.487Z,17.71
2022-10-04T10:02:29.081Z,17.32
2022-10-04T10:03:47.444Z,17.69
2022-10-04T10:05:19.633Z,17.92
2022-10-04T10:07:00.308Z,18.50
2022-10-04T10:08:27.980Z,20.16
2022-10-04T10:09:58.474Z,19.05
2022-10-04T10:11:54.221Z,19.01
2022-10-04T10:13:40.898Z,20.81
2022-10-04T10:14:48.272Z,21.44
2022-10-04T10:15:59.394Z,18.81
2022-10-04T10:17:24.532Z,19.74
2022-10-04T10:18:37.132Z,19.90
2022-10-04T10:19:58.906Z,21.21
2022-10-04T10:21:36.774Z,20.17
2022-10-04T10:23:10.279Z,20.76
2022-10-04T10:31:20.491Z,20.60
2022-10-04T10:32:50.911Z,21.18
2022-10-04T10:34:23.474Z,19.45
2022-10-04T10:35:27.727Z,20.43
2022-10-04T10:42:03.388Z,22.83
2022-10-04T10:43:30.169Z,23.88
2022-10-04T10:45:09.308Z,24.19
2022-10-04T10:46:27.576Z,22.89
2022-10-04T10:47:37.764Z,22.61
2022-10-04T10:49:04.565Z,23.10
2022-10-04T10:50:25.404Z,24.66
2022-10-04T10:52:05.058Z,23.44
2022-10-04T10:53:32.521Z,22.60
2022-10-04T10:55:00.955Z,19.88
2022-10-04T10:56:08.550Z,21.19
2022-10-04T10:57:34.146Z,20.89
2022-10-04T10:59:17.360Z,20.14
2022-10-04T11:00:20.298Z,21.95
2022-10-04T11:01:50.946Z,22.63
2022-10-04T11:03:23.987Z,22.34
2022-10-04T11:05:05.038Z,22.26
2022-10-04T11:06:25.099Z,22.02
2022-10-04T11:07:43.718Z,20.22
2022-10-04T11:09:10.674Z,20.90
2022-10-04T11:10:51.245Z,20.85
2022-10-04T11:19:07.021Z,20.13
2022-10-04T11:20:54.321Z,21.37
2022-10-04T11:22:32.674Z,21.59
2022-10-04T11:23:51.813Z,22.56
2022-10-04T11:36:36.081Z,22.72
2022-10-04T11:38:12.072Z,23.05
2022-10-04T11:39:30.387Z,23.24
2022-10-04T11:41:03.831Z,22.48
2022-10-04T11:42:19.089Z,22.24
2022-10-04T11:43:32.715Z,23.09
2022-10-04T11:44:47.291Z,22.55
2022-10-04T11:46:10.731Z,22.89
2022-10-04T11:47:46.666Z,23.51
2022-10-04T11:49:18.686Z,23.56
2022-10-04T11:50:41.442Z,22.81
2022-10-04T11:52:34.266Z,22.63
2022-10-04T11:53:52.909Z,22.45
2022-10-04T11:55:35.389Z,20.75
2022-10-04T11:57:09.045Z,20.76
2022-10-04T11:58:25.497Z,22.32
2022-10-04T12:00:02.325Z,22.14
2022-10-04T12:01:41.402Z,20.98
2022-10-04T12:03:40.838Z,21.13
2022-10-04T12:05:08.703Z,20.61
2022-10-04T12:06:17.014Z,20.49
2022-10-04T12:07:27.771Z,21.76
2022-10-04T12:08:40.932Z,20.72
2022-10-04T12:10:00.034Z,20.86
2022-10-04T12:11:26.351Z,21.63
2022-10-04T12:12:43.846Z,21.89
2022-10-04T12:14:22.069Z,20.70
2022-10-04T12:15:41.066Z,20.44
2022-10-04T12:17:01.411Z,20.86
2022-10-04T12:18:15.637Z,21.51
2022-10-04T12:19:40.582Z,21.16
2022-10-04T12:21:09.954Z,21.71
2022-10-04T12:22:39.259Z,22.07
2022-10-04T12:23:41.081Z,22.18
2022-10-04T12:30:04.071Z,19.64
2022-10-04T12:31:16.374Z,21.00
2022-10-04T12:32:57.722Z,21.49
2022-10-04T12:34:14.640Z,22.24
2022-10-04T12:35:34.925Z,20.00
2022-10-04T12:39:11.198Z,22.56
2022-10-04T12:40:12.513Z,23.02
2022-10-04T12:41:49.874Z,23.50
2022-10-04T12:42:56.955Z,22.78
2022-10-04T12:44:27.095Z,21.45
2022-10-04T12:45:41.669Z,20.58
2022-10-04T12:53:58.718Z,20.07
2022-10-04T12:55:24.727Z,21.00
2022-10-04T12:56:57.079Z,22.08
2022-10-04T12:58:14.354Z,21.79
2022-10-04T12:59:18.451Z,22.30
2022-10-04T13:00:25.290Z,21.29
2022-10-04T13:01:35.156Z,21.25
2022-10-04T13:02:49.448Z,21.67
2022-10-04T13:03:53.688Z,21.59
2022-10-04T13:05:03.127Z,21.53
2022-10-04T13:06:26.553Z,20.99
2022-10-04T13:07:39.129Z,20.86
2022-10-04T13:08:43.579Z,21.39
2022-10-04T13:10:24.244Z,21.68
2022-10-04T13:11:45.684Z,22.59
2022-10-04T13:13:08.816Z,21.68
2022-10-04T13:14:47.374Z,20.74
2022-10-04T13:18:23.456Z,21.25
2022-10-04T13:19:53.190Z,20.85
2022-10-04T13:21:03.893Z,21.00
2022-10-04T13:22:37.605Z,22.37
2022-10-04T13:24:01.552Z,21.85
2022-10-04T13:25:21.361Z,21.63
2022-10-04T13:26:25.425Z,21.58
2022-10-04T13:28:06.414Z,23.22
2022-10-04T13:29:34.383Z,24.01
2022-10-04T13:30:50.078Z,23.62
2022-10-04T13:32:07.849Z,23.64
2022-10-04T13:33:39.964Z,23.54
2022-10-04T13:34:53.225Z,24.38
2022-10-04T13:35:58.285Z,23.80
2022-10-04T13:37:18.134Z,23.96
2022-10-04T13:38:53.267Z,24.28
2022-10-04T13:40:15.466Z,23.05
2022-10-04T13:41:37.616Z,23.36
2022-10-04T13:43:05.947Z,24.03
2022-10-04T13:44:40.502Z,24.20
2022-10-04T13:46:16.144Z,23.90
2022-10-04T13:54:44.558Z,23.09
2022-10-04T13:56:37.413Z,23.03
2022-10-04T13:58:28.789Z,22.80
2022-10-04T13:59:39.398Z,22.00
2022-10-04T14:00:51.524Z,22.33
2022-10-04T14:01:53.365Z,22.18
2022-10-04T14:02:57.829Z,22.04
2022-10-04T14:04:36.172Z,22.33
2022-10-04T14:06:09.526Z,23.32
2022-10-04T14:07:37.979Z,23.47
2022-10-04T14:09:33.332Z,23.46
2022-10-04T14:10:53.498Z,23.37
2022-10-04T14:12:04.171Z,22.38
2022-10-04T14:13:40.619Z,22.06
2022-10-04T14:15:16.290Z,21.51
2022-10-04T14:16:51.722Z,22.59
2022-10-04T14:18:43.373Z,22.67
2022-10-04T14:20:04.572Z,22.77
2022-10-04T14:21:18.205Z,22.79
2022-10-04T14:22:31.982Z,23.52
2022-10-04T14:24:15.129Z,23.34
2022-10-04T14:25:27.168Z,22.56
2022-10-04T14:27:03.577Z,21.58
2022-10-04T14:28:26.916Z,22.71
2022-10-04T14:29:40.272Z,23.00
2022-10-04T14:31:20.075Z,23.72
2022-10-04T14:32:52.277Z,22.99
2022-10-04T14:34:27.036Z,22.81
2022-10-04T14:35:42.435Z,22.35
2022-10-04T14:37:08.723Z,22.52
2022-10-04T14:38:43.188Z,22.03
2022-10-04T14:40:07.365Z,21.74
2022-10-04T14:41:27.978Z,22.45
2022-10-04T14:42:38.409Z,21.21
2022-10-04T14:44:17.126Z,21.62
2022-10-04T14:45:27.037Z,22.43
2022-10-04T14:47:03.718Z,22.10
2022-10-04T14:48:20.555Z,21.89
2022-10-04T14:49:46.862Z,21.35
2022-10-04T14:50:50.894Z,21.21
2022-10-04T14:52:39.342Z,22.22
2022-10-04T14:54:00.983Z,22.20
2022-10-04T14:55:34.896Z,21.57
2022-10-04T14:57:15.032Z,21.92
2022-10-04T14:58:35.121Z,21.21
2022-10-04T15:00:01.520Z,21.72
2022-10-04T15:01:18.082Z,21.69
2022-10-04T15:02:22.177Z,22.39
2022-10-04T15:03:55.279Z,21.99
2022-10-04T15:05:28.542Z,21.99
2022-10-04T15:06:54.692Z,21.44
2022-10-04T17:10:21.490Z,15.86
